Time;durP1;ratioP1;P1;durP2;ratioP2;P2;SDS_P1;SDS_P2;PMS_P1;PMS_P2;Temp;Humidity;BMP_temperature;BMP_pressure;BME280_temperature;BME280_humidity;BME280_pressure;Samples;Min_cycle;Max_cycle;Signal;HPM_P1;HPM_P2
2021/03/31 00:00:43;;;;;;;11.88;7.90;;;;;;;5.49;60.92;98245.06;1732514;82;21161;-80
2021/03/31 00:03:47;;;;;;;13.05;7.50;;;;;;;5.54;61.02;98243.09;1734099;83;21108;-81
2021/03/31 00:06:24;;;;;;;20.50;8.65;;;;;;;5.57;60.98;98247.33;1703289;84;21131;-81
2021/03/31 00:09:20;;;;;;;12.73;7.92;;;;;;;5.57;60.82;98247.33;1523808;92;21264;-80
2021/03/31 00:12:11;;;;;;;14.00;8.60;;;;;;;5.57;60.82;98240.36;1791489;80;27163;-79
2021/03/31 00:14:55;;;;;;;15.38;9.28;;;;;;;5.52;60.67;98242.30;1736176;81;21255;-79
2021/03/31 00:17:50;;;;;;;14.45;8.90;;;;;;;5.49;60.57;98235.91;1766177;81;21277;-81
2021/03/31 00:20:46;;;;;;;14.03;8.15;;;;;;;5.42;60.62;98243.14;1744037;81;21324;-81
2021/03/31 00:23:38;;;;;;;17.57;8.63;;;;;;;5.35;60.76;98240.39;1765976;81;21266;-81
2021/03/31 00:26:23;;;;;;;19.57;9.38;;;;;;;5.26;61.07;98235.07;1727046;82;21241;-81
2021/03/31 00:29:05;;;;;;;17.35;8.95;;;;;;;5.21;60.84;98230.50;1706968;82;21281;-81
2021/03/31 00:31:58;;;;;;;11.33;7.42;;;;;;;5.15;60.94;98232.06;1733400;83;21670;-80
2021/03/31 00:34:33;;;;;;;11.73;8.40;;;;;;;5.08;61.04;98237.98;1734262;82;21108;-79
2021/03/31 00:37:35;;;;;;;12.35;8.70;;;;;;;5.08;61.22;98227.53;1816908;79;26674;-80
2021/03/31 00:51:52;;;;;;;13.85;8.13;;;;;;;4.75;62.25;98218.78;1792180;80;25945;-81
2021/03/31 00:54:31;;;;;;;12.80;8.30;;;;;;;4.65;61.33;98221.34;1765965;81;21262;-81
2021/03/31 00:57:21;;;;;;;13.85;7.67;;;;;;;4.58;62.00;98219.45;1740325;81;21128;-81
2021/03/31 01:00:05;;;;;;;16.93;8.68;;;;;;;4.53;61.93;98217.02;1765837;81;21255;-81
2021/03/31 01:02:49;;;;;;;;;;;;;;;4.50;62.30;98223.65;1767548;81;21251;-80
2021/03/31 01:05:44;;;;;;;12.85;8.20;;;;;;;4.47;62.78;98222.45;1766204;81;20121;-81
2021/03/31 01:08:40;;;;;;;13.45;8.40;;;;;;;4.44;62.67;98221.28;1638667;86;21183;-80
2021/03/31 01:11:58;;;;;;;13.22;8.08;;;;;;;4.41;62.09;98217.93;1638532;88;21192;-81
2021/03/31 01:15:22;;;;;;;13.40;8.43;;;;;;;4.40;62.78;98216.23;1821628;76;24044;-80
2021/03/31 01:18:30;;;;;;;15.28;8.55;;;;;;;4.27;62.13;98220.59;1792020;77;21100;-82
2021/03/31 01:22:04;;;;;;;16.37;8.55;;;;;;;4.25;63.10;98214.56;1835035;77;23456;-80
2021/03/31 01:25:36;;;;;;;18.45;8.43;;;;;;;4.15;62.12;98214.06;1833518;76;21115;-80
2021/03/31 01:28:43;;;;;;;11.10;7.85;;;;;;;4.09;62.46;98216.87;1808073;77;21285;-81
2021/03/31 01:31:45;;;;;;;14.83;7.97;;;;;;;4.06;63.07;98208.71;1833281;78;21270;-79
2021/03/31 01:34:46;;;;;;;12.65;8.08;;;;;;;4.06;62.66;98206.56;1833284;78;21127;-80
2021/03/31 01:37:54;;;;;;;10.82;6.90;;;;;;;4.07;62.56;98208.28;1833366;76;21155;-79
2021/03/31 01:40:34;;;;;;;12.93;7.75;;;;;;;3.98;62.26;98192.95;1833138;78;21132;-81
2021/03/31 01:43:19;;;;;;;15.25;8.48;;;;;;;4.08;63.27;98210.42;1833421;78;21167;-80
2021/03/31 01:46:02;;;;;;;10.78;7.05;;;;;;;4.07;63.88;98216.10;1833058;78;21107;-80
2021/03/31 01:48:41;;;;;;;15.08;7.90;;;;;;;4.08;62.61;98218.25;1807530;78;21104;-79
2021/03/31 01:51:25;;;;;;;14.90;7.50;;;;;;;4.06;63.37;98214.39;1833287;78;21151;-82
2021/03/31 01:54:21;;;;;;;14.05;8.25;;;;;;;4.09;62.70;98216.87;1833177;76;21143;-80
2021/03/31 01:57:29;;;;;;;12.58;7.47;;;;;;;4.10;62.42;98216.44;1833297;78;21124;-81
2021/03/31 01:59:59;;;;;;;12.43;7.60;;;;;;;4.11;63.06;98220.75;1807017;78;21293;-80
2021/03/31 02:02:42;;;;;;;11.53;6.80;;;;;;;4.12;63.33;98215.47;1829042;77;21119;-81
2021/03/31 02:05:19;;;;;;;13.05;7.20;;;;;;;4.16;63.68;98223.60;1833223;77;21147;-81
2021/03/31 02:07:54;;;;;;;9.80;6.53;;;;;;;4.20;63.69;98228.25;1806191;77;21262;-80
2021/03/31 02:10:40;;;;;;;15.75;6.90;;;;;;;4.24;63.68;98222.46;1829791;77;21186;-80
2021/03/31 02:13:16;;;;;;;13.90;7.47;;;;;;;4.29;63.79;98227.91;1833854;77;21135;-79
2021/03/31 02:16:00;;;;;;;11.68;7.12;;;;;;;4.35;64.32;98226.84;1833438;77;21143;-81
2021/03/31 02:18:47;;;;;;;12.65;6.47;;;;;;;4.41;63.90;98222.69;1833564;76;21127;-80
2021/03/31 02:21:30;;;;;;;12.03;6.50;;;;;;;4.44;63.85;98226.50;1699680;84;21186;-82
2021/03/31 02:24:22;;;;;;;13.25;7.37;;;;;;;4.48;63.89;98221.54;1698336;84;21147;-79
2021/03/31 02:27:19;;;;;;;16.17;8.13;;;;;;;4.56;63.80;98221.27;1699799;85;21131;-79
2021/03/31 02:30:00;;;;;;;16.10;8.08;;;;;;;4.62;63.71;98213.66;1855467;77;24351;-80
2021/03/31 02:32:44;;;;;;;12.15;6.70;;;;;;;4.56;63.49;98218.65;1829342;78;21203;-80
2021/03/31 02:35:22;;;;;;;13.38;7.45;;;;;;;4.53;63.39;98213.09;1830270;78;21121;-81
2021/03/31 02:38:16;;;;;;;11.80;8.20;;;;;;;4.54;63.43;98215.23;1658368;85;21388;-82
2021/03/31 02:41:16;;;;;;;14.30;7.62;;;;;;;4.52;63.34;98219.23;1655823;84;21222;-79
2021/03/31 02:43:51;;;;;;;11.20;7.35;;;;;;;4.49;63.29;98215.88;1637144;87;21170;-81
2021/03/31 02:46:53;;;;;;;10.82;7.03;;;;;;;4.43;62.92;98218.27;1658408;87;21185;-80
2021/03/31 02:49:51;;;;;;;14.50;8.28;;;;;;;4.43;63.34;98212.17;1792019;80;27168;-81
2021/03/31 02:52:42;;;;;;;12.90;8.38;;;;;;;4.32;63.11;98205.59;1765853;81;21314;-79
2021/03/31 02:55:25;;;;;;;15.88;7.53;;;;;;;4.27;63.21;98208.84;1765928;81;21162;-81
2021/03/31 02:58:24;;;;;;;12.63;7.75;;;;;;;4.22;63.30;98206.41;1741692;81;21113;-80
2021/03/31 03:01:07;;;;;;;10.78;7.00;;;;;;;4.18;63.51;98206.09;1758583;81;21270;-81
2021/03/31 03:03:57;;;;;;;12.80;8.00;;;;;;;4.12;63.52;98206.80;1729941;83;21156;-82
2021/03/31 03:06:49;;;;;;;15.83;7.60;;;;;;;4.04;63.64;98208.38;1705193;82;21227;-83
2021/03/31 03:10:04;;;;;;;12.18;7.62;;;;;;;4.00;63.71;98211.98;1735746;83;21190;-81
2021/03/31 03:13:03;;;;;;;12.07;7.80;;;;;;;3.94;64.00;98207.87;1751045;81;21282;-84
2021/03/31 03:16:12;;;;;;;13.50;8.83;;;;;;;3.88;64.11;98218.06;1744176;81;21285;-79
2021/03/31 03:19:12;;;;;;;15.88;8.23;;;;;;;3.85;63.76;98212.94;1743371;81;21108;-82
2021/03/31 03:22:24;;;;;;;13.45;7.62;;;;;;;3.82;64.10;98213.04;1763134;81;21155;-81
2021/03/31 03:25:18;;;;;;;12.28;7.58;;;;;;;3.79;64.13;98204.04;1763973;80;21178;-81
2021/03/31 03:28:05;;;;;;;14.53;8.80;;;;;;;3.77;63.92;98211.49;1765730;81;21450;-83
2021/03/31 03:31:06;;;;;;;13.00;7.55;;;;;;;3.70;64.39;98216.09;1760707;80;21254;-82
2021/03/31 03:34:09;;;;;;;12.50;6.85;;;;;;;3.53;63.96;98201.02;1638880;87;21192;-84
2021/03/31 03:37:04;;;;;;;13.85;7.97;;;;;;;3.63;64.60;98223.27;1643687;86;21273;-80
2021/03/31 03:39:58;;;;;;;13.30;7.40;;;;;;;3.63;64.64;98220.66;1635371;88;21132;-82
2021/03/31 03:42:50;;;;;;;11.25;7.75;;;;;;;3.63;64.79;98221.09;1639646;88;21117;-80
2021/03/31 03:45:44;;;;;;;12.75;7.97;;;;;;;3.61;65.00;98217.25;1635976;86;21202;-82
2021/03/31 03:48:51;;;;;;;12.00;7.65;;;;;;;3.58;65.17;98205.61;1601377;88;21251;-82
2021/03/31 03:51:50;;;;;;;13.83;7.55;;;;;;;3.55;65.28;98202.66;1690330;82;21282;-82
2021/03/31 03:55:12;;;;;;;14.60;8.00;;;;;;;3.59;65.89;98202.10;1691888;83;21290;-82
2021/03/31 03:58:11;;;;;;;16.42;7.80;;;;;;;3.63;65.66;98208.06;1679451;85;21160;-83
2021/03/31 04:01:21;;;;;;;13.78;7.33;;;;;;;3.64;66.10;98203.25;1664021;84;21168;-81
2021/03/31 04:04:27;;;;;;;14.30;7.17;;;;;;;3.66;66.03;98193.19;1693331;83;21120;-80
2021/03/31 04:07:29;;;;;;;15.75;8.23;;;;;;;3.79;66.09;98196.65;1659366;84;21144;-80
2021/03/31 04:10:07;;;;;;;11.03;7.45;;;;;;;3.80;65.81;98194.01;1658179;84;21289;-81
2021/03/31 04:12:44;;;;;;;18.17;8.05;;;;;;;3.83;65.56;98194.34;1697545;84;21287;-81
2021/03/31 04:15:28;;;;;;;11.90;7.67;;;;;;;3.88;65.76;98196.33;1688948;84;21280;-80
2021/03/31 04:18:06;;;;;;;12.20;7.70;;;;;;;3.93;65.46;98193.12;1701084;84;21139;-78
2021/03/31 04:20:49;;;;;;;12.33;6.78;;;;;;;3.99;65.19;98195.50;1672696;84;21738;-80
2021/03/31 04:23:30;;;;;;;15.80;7.50;;;;;;;4.08;64.86;98190.84;1692856;84;21160;-80
2021/03/31 04:26:21;;;;;;;12.18;6.65;;;;;;;4.13;64.97;98196.77;1701609;84;21651;-81
2021/03/31 04:28:52;;;;;;;12.30;7.03;;;;;;;4.19;64.92;98201.28;1700992;84;21152;-78
2021/03/31 04:31:22;;;;;;;12.40;6.40;;;;;;;4.28;64.73;98200.11;1699680;84;21140;-79
2021/03/31 04:33:54;;;;;;;13.18;7.45;;;;;;;4.34;64.74;98193.34;1701021;84;21120;-80
2021/03/31 04:36:24;;;;;;;13.72;8.03;;;;;;;4.44;64.69;98187.77;1701800;84;21173;-80
2021/03/31 04:38:51;;;;;;;17.98;7.55;;;;;;;4.53;64.48;98190.90;1702048;84;21584;-80
2021/03/31 04:41:18;;;;;;;14.87;6.47;;;;;;;4.63;64.37;98186.16;1700174;84;21179;-78
2021/03/31 04:43:46;;;;;;;14.30;8.20;;;;;;;4.75;64.13;98182.68;1675089;84;21160;-80
2021/03/31 04:46:13;;;;;;;11.05;6.85;;;;;;;4.85;63.95;98185.33;1704504;84;21282;-80
2021/03/31 04:48:51;;;;;;;16.05;6.90;;;;;;;4.94;63.86;98179.73;1586988;86;21228;-79
2021/03/31 04:51:52;;;;;;;12.53;6.53;;;;;;;5.13;63.92;98188.98;1818544;78;24180;-78
2021/03/31 04:54:23;;;;;;;12.85;8.55;;;;;;;5.17;63.49;98187.08;1795370;80;21179;-80
2021/03/31 04:57:01;;;;;;;16.73;7.78;;;;;;;5.21;63.42;98189.11;1818673;78;21278;-78
2021/03/31 04:59:43;;;;;;;21.73;8.00;;;;;;;5.30;63.34;98180.89;1828130;78;21254;-80
2021/03/31 05:02:18;;;;;;;17.20;8.63;;;;;;;5.42;63.35;98175.62;1822840;76;21111;-78
2021/03/31 05:05:12;;;;;;;22.77;9.08;;;;;;;5.53;63.16;98176.00;1777464;79;21120;-79
2021/03/31 05:08:35;;;;;;;18.92;8.50;;;;;;;5.69;62.93;98177.51;1736898;79;21254;-79
2021/03/31 05:11:06;;;;;;;19.12;8.73;;;;;;;5.82;62.66;98166.05;1743619;79;21270;-80
2021/03/31 05:13:48;;;;;;;14.13;7.03;;;;;;;5.92;62.49;98165.20;1755114;79;21143;-80
2021/03/31 05:16:58;;;;;;;19.40;10.05;;;;;;;6.02;62.20;98163.91;1700101;79;21107;-79
2021/03/31 05:19:36;;;;;;;17.70;8.15;;;;;;;6.14;62.07;98165.12;1743694;79;21139;-78
2021/03/31 05:22:10;;;;;;;14.87;7.75;;;;;;;6.23;61.85;98158.59;1743444;80;21174;-78
2021/03/31 05:24:51;;;;;;;16.60;7.65;;;;;;;6.31;61.62;98162.19;1726196;80;21173;-78
2021/03/31 05:27:20;;;;;;;13.43;7.45;;;;;;;6.40;61.52;98168.30;1743672;79;21177;-79
2021/03/31 05:30:19;;;;;;;16.48;7.40;;;;;;;6.49;61.30;98162.64;1740351;79;21143;-80
2021/03/31 05:32:59;;;;;;;12.68;8.33;;;;;;;6.64;61.17;98168.94;1743542;79;21241;-78
2021/03/31 05:35:36;;;;;;;15.72;9.05;;;;;;;6.77;60.91;98165.27;1743868;79;21119;-78
2021/03/31 05:38:40;;;;;;;11.48;9.00;;;;;;;6.90;60.62;98162.07;1743471;79;21123;-83
2021/03/31 05:52:15;;;;;;;15.05;8.40;;;;;;;7.46;59.55;98161.48;1761454;75;22865;-83
2021/03/31 05:55:23;;;;;;;15.50;8.30;;;;;;;7.54;59.59;98167.66;1707509;79;21336;-83
2021/03/31 05:58:37;;;;;;;22.10;10.25;;;;;;;7.88;58.84;98181.67;1653487;85;21169;-84
2021/03/31 06:01:41;;;;;;;28.17;11.10;;;;;;;7.88;58.84;98181.67;1538955;90;21187;-82
2021/03/31 06:04:48;;;;;;;27.35;10.58;;;;;;;8.18;58.43;98186.24;1797366;78;24400;-83
2021/03/31 06:08:10;;;;;;;25.88;11.78;;;;;;;8.24;58.53;98193.78;1789311;79;21147;-81
2021/03/31 06:11:04;;;;;;;20.90;11.20;;;;;;;8.43;57.99;98192.35;1795678;80;21108;-81
2021/03/31 06:14:03;;;;;;;26.05;10.28;;;;;;;8.63;57.74;98195.70;1798793;79;21279;-81
2021/03/31 06:16:46;;;;;;;17.27;9.75;;;;;;;8.85;57.39;98201.94;1791029;79;21325;-81
2021/03/31 06:19:52;;;;;;;20.48;10.55;;;;;;;9.09;57.01;98196.22;1776389;79;21195;-81
2021/03/31 06:26:04;;;;;;;23.87;10.10;;;;;;;9.49;56.41;98186.05;1778165;79;21253;-82
2021/03/31 06:29:12;;;;;;;26.05;10.05;;;;;;;9.65;56.26;98189.46;1786738;80;21284;-81
2021/03/31 06:31:56;;;;;;;19.42;8.95;;;;;;;9.84;55.83;98188.36;1751081;79;21166;-83
2021/03/31 06:35:29;;;;;;;30.90;9.50;;;;;;;9.97;55.69;98190.66;1753071;80;21283;-85
2021/03/31 06:39:08;;;;;;;;;;;;;;;;;;;;;
2021/03/31 06:46:10;;;;;;;19.55;9.13;;;;;;;10.36;54.45;98203.24;1789739;80;21118;-80
2021/03/31 06:49:01;;;;;;;21.65;9.48;;;;;;;10.53;54.34;98193.88;1771890;80;21264;-81
2021/03/31 06:51:59;;;;;;;22.65;9.30;;;;;;;10.68;54.10;98197.80;1791342;80;21268;-82
2021/03/31 06:57:48;;;;;;;17.75;8.48;;;;;;;10.78;53.55;98194.95;1736553;83;21140;-83
2021/03/31 07:00:34;;;;;;;;;;;;;;;10.92;52.58;98192.27;1785351;80;21240;-80
2021/03/31 07:03:18;;;;;;;13.15;8.40;;;;;;;11.09;51.13;98192.96;1637600;87;20573;-83
2021/03/31 07:06:28;;;;;;;14.70;7.70;;;;;;;11.34;52.41;98195.34;1784009;80;24920;-81
2021/03/31 07:09:19;;;;;;;17.50;7.17;;;;;;;11.41;52.34;98196.13;1754981;81;21265;-80
2021/03/31 07:12:01;;;;;;;17.80;7.37;;;;;;;11.54;52.00;98201.47;1737844;80;21242;-81
2021/03/31 07:14:51;;;;;;;11.45;7.35;;;;;;;11.78;51.13;98193.31;1765058;81;21180;-83
2021/03/31 07:17:31;;;;;;;19.52;7.92;;;;;;;11.99;50.17;98200.28;1784531;80;21182;-84
2021/03/31 07:20:33;;;;;;;16.17;7.35;;;;;;;12.24;50.41;98198.57;1764559;80;21179;-82
2021/03/31 07:23:50;;;;;;;15.40;7.90;;;;;;;12.41;49.32;98199.55;1779781;80;21108;-83
2021/03/31 07:48:14;;;;;;;14.58;5.78;;;;;;;13.57;46.86;98179.80;1692568;80;21399;-84
2021/03/31 07:51:29;;;;;;;12.20;6.35;;;;;;;13.72;47.13;98179.95;1622052;87;21150;-82
2021/03/31 07:55:08;;;;;;;10.30;6.03;;;;;;;13.96;46.38;98177.72;1647527;87;21138;-85
2021/03/31 07:58:39;;;;;;;13.50;6.50;;;;;;;14.06;43.37;98179.99;1650328;85;21256;-84
2021/03/31 08:08:44;;;;;;;15.18;7.78;;;;;;;13.40;44.07;98178.40;1641500;86;21680;-83
2021/03/31 08:12:11;;;;;;;16.93;8.63;;;;;;;13.28;45.09;98171.70;1632458;86;21228;-82
2021/03/31 08:15:45;;;;;;;18.50;7.85;;;;;;;13.43;44.86;98176.36;1638718;85;21174;-83
2021/03/31 08:19:16;;;;;;;17.17;6.37;;;;;;;13.53;44.51;98165.08;1626206;88;21181;-81
2021/03/31 08:23:00;;;;;;;13.22;6.55;;;;;;;13.68;44.41;98173.20;1627845;88;21216;-83
2021/03/31 08:25:58;;;;;;;21.30;8.35;;;;;;;13.87;44.26;98169.16;1639059;85;21218;-86
2021/03/31 08:39:03;;;;;;;10.58;6.40;;;;;;;14.56;41.77;98160.73;1570199;86;21273;-83
2021/03/31 08:42:27;;;;;;;12.70;6.55;;;;;;;14.34;41.95;98164.58;1574644;91;21407;-85
2021/03/31 08:45:40;;;;;;;15.08;6.95;;;;;;;14.61;41.05;98159.40;1510132;94;21228;-85
2021/03/31 09:04:48;;;;;;;18.70;8.83;;;;;;;14.66;41.15;98141.78;1714831;82;21110;-84
2021/03/31 09:08:53;;;;;;;;;;;;;;;;;;;;;
2021/03/31 09:11:55;;;;;;;12.85;7.28;;;;;;;14.90;40.64;98140.78;1599964;88;21179;-83
2021/03/31 09:15:08;;;;;;;15.35;8.20;;;;;;;15.05;40.65;98136.03;1634048;83;21324;-86
2021/03/31 09:21:53;;;;;;;12.33;6.17;;;;;;;15.41;40.10;98123.31;1662704;83;21183;-87
2021/03/31 09:32:01;;;;;;;14.75;9.10;;;;;;;15.80;39.76;98111.61;1634064;86;21183;-85
2021/03/31 09:38:45;;;;;;;14.65;8.13;;;;;;;16.43;39.31;98109.78;1591814;86;21104;-90
2021/03/31 09:52:14;;;;;;;15.45;8.63;;;;;;;17.02;39.15;98090.80;1740780;80;28278;-88
2021/03/31 09:55:15;;;;;;;16.15;8.78;;;;;;;17.20;38.21;98085.59;1710064;83;21100;-90
2021/03/31 09:58:28;;;;;;;20.08;9.23;;;;;;;17.32;38.02;98082.28;1683218;83;21346;-92
2021/03/31 10:01:49;;;;;;;17.92;8.88;;;;;;;17.43;36.91;98078.64;1693446;84;21176;-91
2021/03/31 10:05:30;;;;;;;18.57;8.50;;;;;;;17.70;37.41;98071.20;1684276;84;21128;-90
2021/03/31 10:09:22;;;;;;;13.62;8.68;;;;;;;17.46;34.95;98072.53;1690482;84;21109;-90
2021/03/31 10:12:53;;;;;;;20.88;10.28;;;;;;;16.91;36.72;98061.11;1705279;84;21306;-88
2021/03/31 10:16:12;;;;;;;11.50;8.93;;;;;;;17.09;37.41;98060.44;1692840;84;21203;-88
2021/03/31 10:19:19;;;;;;;20.10;10.28;;;;;;;17.22;37.47;98052.14;1714613;84;21340;-90
2021/03/31 10:21:47;;;;;;;18.32;8.23;;;;;;;17.46;37.15;98053.02;1694268;83;21298;-89
2021/03/31 10:28:45;;;;;;;13.78;8.28;;;;;;;17.62;35.63;98051.95;1661162;86;21590;-88
2021/03/31 10:32:34;;;;;;;14.33;8.08;;;;;;;17.64;36.30;98045.13;1655799;85;21117;-90
2021/03/31 10:36:00;;;;;;;13.43;7.28;;;;;;;17.48;35.78;98034.59;1683867;85;21120;-87
2021/03/31 11:03:19;;;;;;;;;;;;;;;17.75;35.12;97981.45;1796007;78;22344;-89
2021/03/31 11:09:43;;;;;;;12.30;9.18;;;;;;;17.26;35.62;97984.29;1793823;80;21160;-90
2021/03/31 11:13:04;;;;;;;18.67;10.35;;;;;;;16.85;36.00;97957.34;1779196;78;21187;-89
2021/03/31 11:30:35;;;;;;;;;;;;;;;17.68;37.26;97949.70;1829327;77;24145;-85
2021/03/31 11:33:59;;;;;;;9.98;7.12;;;;;;;17.71;35.66;97949.42;1798472;78;20145;-88
2021/03/31 11:37:35;;;;;;;16.20;8.83;;;;;;;17.57;35.54;97949.41;1738674;79;21286;-87
2021/03/31 11:41:26;;;;;;;12.88;8.45;;;;;;;17.45;36.39;97940.73;1726881;82;21157;-88
2021/03/31 11:45:08;;;;;;;;;;;;;;;17.41;36.81;97932.20;1757257;82;21167;-89
2021/03/31 11:52:04;;;;;;;9.73;5.80;;;;;;;17.90;36.74;97923.98;1754712;82;21124;-85
2021/03/31 11:58:56;;;;;;;11.05;6.22;;;;;;;18.23;36.23;97910.19;1606525;89;21224;-88
2021/03/31 12:02:34;;;;;;;10.05;5.15;;;;;;;18.24;35.23;97911.83;1613469;89;21190;-90
2021/03/31 12:05:58;;;;;;;11.03;6.85;;;;;;;18.09;35.69;97908.88;1611868;89;21190;-91
2021/03/31 12:35:11;;;;;;;7.37;5.55;;;;;;;17.83;36.99;97867.39;1739039;81;26616;-86
2021/03/31 12:38:34;;;;;;;9.73;5.85;;;;;;;17.98;36.90;97863.75;1694627;83;21403;-89
2021/03/31 12:42:05;;;;;;;11.22;5.80;;;;;;;18.12;36.72;97835.70;1689499;84;21243;-88
2021/03/31 12:45:29;;;;;;;8.50;4.70;;;;;;;18.41;35.76;97850.11;1665260;84;21128;-91
2021/03/31 12:48:35;;;;;;;8.75;4.90;;;;;;;18.32;35.25;97847.03;1696882;83;21160;-90
2021/03/31 13:15:59;;;;;;;5.47;3.25;;;;;;;17.77;36.42;97819.00;1814157;77;24888;-87
2021/03/31 13:31:02;;;;;;;8.93;5.10;;;;;;;17.66;37.45;97805.05;1791912;80;21191;-85
2021/03/31 13:59:18;;;;;;;9.48;4.53;;;;;;;17.08;38.48;97789.27;1808731;78;21163;-87
2021/03/31 14:02:48;;;;;;;10.75;4.60;;;;;;;16.95;38.71;97782.95;1802385;77;21183;-86
2021/03/31 14:05:44;;;;;;;6.40;4.42;;;;;;;16.91;38.87;97786.03;1813093;78;21116;-88
2021/03/31 14:13:09;;;;;;;10.78;5.97;;;;;;;16.82;39.12;97773.09;1675227;83;21299;-91
2021/03/31 14:16:57;;;;;;;;;;;;;;;;;;;;;
2021/03/31 14:23:32;;;;;;;10.08;4.55;;;;;;;17.22;39.14;97757.78;1565020;85;21212;-89
2021/03/31 14:26:35;;;;;;;7.97;4.47;;;;;;;17.29;39.14;97757.55;1632477;86;21219;-90
2021/03/31 14:33:10;;;;;;;7.05;4.10;;;;;;;17.07;39.25;97752.97;1620897;87;21214;-90
2021/03/31 14:40:36;;;;;;;4.85;3.15;;;;;;;16.97;39.59;97742.86;1665461;83;21339;-89
2021/03/31 14:43:48;;;;;;;6.65;3.70;;;;;;;17.09;39.48;97743.02;1685116;82;21127;-90
2021/03/31 14:46:55;;;;;;;5.85;3.83;;;;;;;17.03;39.54;97738.77;1703066;82;21125;-89
2021/03/31 14:50:43;;;;;;;;;;;;;;;;;;;;;
2021/03/31 15:01:31;;;;;;;9.70;5.20;;;;;;;16.41;39.84;97621.72;1656271;85;21243;-93
2021/03/31 15:11:10;;;;;;;11.12;6.50;;;;;;;16.95;40.00;97706.22;1639909;84;21244;-91
2021/03/31 15:18:17;;;;;;;9.95;5.95;;;;;;;16.77;40.21;97699.50;1613884;87;21201;-91
2021/03/31 15:22:35;;;;;;;;;;;;;;;;;;;;;
2021/03/31 15:29:02;;;;;;;8.58;5.60;;;;;;;16.49;40.80;97696.82;1563077;90;21175;-90
2021/03/31 15:32:07;;;;;;;;;;;;;;;16.44;41.01;97689.75;1552118;88;21224;-90
2021/03/31 17:13:04;;;;;;;12.23;5.17;;;;;;;13.82;48.15;97657.24;1602397;88;21285;-86
2021/03/31 17:16:32;;;;;;;13.18;6.70;;;;;;;13.73;48.13;97657.55;1621465;86;21897;-88
2021/03/31 17:20:18;;;;;;;13.48;5.75;;;;;;;13.61;48.11;97657.25;1647828;83;21300;-86
2021/03/31 17:23:12;;;;;;;10.70;5.65;;;;;;;13.51;48.21;97661.14;1692255;83;21156;-89
2021/03/31 17:37:02;;;;;;;;;;;;;;;;;;;;;
2021/03/31 17:48:13;;;;;;;16.75;7.65;;;;;;;12.84;49.26;97669.66;1599914;87;21291;-88
2021/03/31 17:59:32;;;;;;;16.77;8.50;;;;;;;12.40;50.23;97675.70;1520810;93;21203;-85
2021/03/31 18:03:26;;;;;;;14.90;7.65;;;;;;;12.25;50.40;97672.95;1537442;89;21208;-84
2021/03/31 18:06:35;;;;;;;14.98;7.95;;;;;;;12.08;50.89;97687.00;1577898;89;21252;-84
2021/03/31 18:25:16;;;;;;;20.23;9.85;;;;;;;11.47;51.95;97681.40;1561746;88;21272;-82
2021/03/31 18:28:57;;;;;;;22.58;10.45;;;;;;;11.33;52.54;97681.11;1611983;88;21342;-84
2021/03/31 19:24:35;;;;;;;;;;;;;;;;;;;;;
2021/03/31 19:27:33;;;;;;;24.92;13.13;;;;;;;10.15;55.75;97671.48;1600500;86;21144;-86
2021/03/31 19:31:30;;;;;;;21.05;12.55;;;;;;;10.10;56.23;97674.44;1526950;90;21191;-83
2021/03/31 20:27:29;;;;;;;16.60;9.43;;;;;;;9.28;57.82;97666.75;1809822;76;25379;-85
2021/03/31 20:34:50;;;;;;;17.80;10.82;;;;;;;9.21;58.01;97658.91;1693522;83;21176;-88
2021/03/31 20:38:32;;;;;;;16.30;11.15;;;;;;;9.19;57.89;97665.56;1617011;82;21245;-88
2021/03/31 21:01:01;;;;;;;15.15;10.38;;;;;;;8.85;58.67;97645.90;1578506;90;21211;-88
2021/03/31 21:48:26;;;;;;;13.08;9.08;;;;;;;8.84;61.29;97635.84;1691293;80;21199;-89
2021/03/31 21:51:56;;;;;;;14.47;9.20;;;;;;;8.84;61.24;97638.95;1643333;82;21182;-88
2021/03/31 21:55:36;;;;;;;16.32;8.85;;;;;;;8.83;61.00;97638.58;1746987;82;21222;-88
2021/03/31 22:06:07;;;;;;;15.65;9.93;;;;;;;8.65;60.68;97630.93;1858184;76;26089;-86
2021/03/31 22:10:04;;;;;;;17.30;10.15;;;;;;;8.54;60.79;97631.59;1815066;76;23269;-89
2021/03/31 22:17:46;;;;;;;13.10;9.43;;;;;;;8.34;61.01;97614.93;1731223;80;21219;-88
2021/03/31 22:25:37;;;;;;;14.63;8.90;;;;;;;8.16;61.12;97627.41;1637592;82;21161;-89
2021/03/31 22:32:22;;;;;;;14.65;9.83;;;;;;;8.00;61.22;97623.12;1652808;84;21243;-90
2021/03/31 22:35:44;;;;;;;15.65;9.75;;;;;;;7.94;61.42;97623.02;1603650;88;21178;-88
2021/03/31 22:48:56;;;;;;;21.23;11.03;;;;;;;7.60;61.81;97613.72;1497648;92;21315;-87
2021/03/31 23:07:34;;;;;;;16.23;9.85;;;;;;;7.37;62.16;97613.33;1716394;80;21315;-89
2021/03/31 23:11:42;;;;;;;16.70;8.80;;;;;;;7.31;62.44;97606.66;1673384;84;21167;-90
2021/03/31 23:14:35;;;;;;;16.90;8.35;;;;;;;7.27;62.43;97611.69;1572058;87;21218;-87
2021/03/31 23:31:25;;;;;;;12.68;7.92;;;;;;;7.28;62.77;97598.96;1732776;82;21164;-91
2021/03/31 23:34:55;;;;;;;15.80;7.95;;;;;;;7.34;63.11;97597.76;1701077;83;21106;-89
2021/03/31 23:45:41;;;;;;;11.78;7.75;;;;;;;7.06;63.91;97515.94;1769473;78;21186;-88
2021/03/31 23:48:55;;;;;;;13.38;7.45;;;;;;;7.55;64.10;97581.68;1665939;83;21254;-87
2021/03/31 23:55:53;;;;;;;10.95;7.60;;;;;;;7.63;64.12;97573.70;1693301;82;21258;-87
2021/03/31 23:59:25;;;;;;;10.82;7.80;;;;;;;7.63;64.12;97573.70;1616192;83;21150;-87
